Time;durP1;ratioP1;P1;durP2;ratioP2;P2;SDS_P1;SDS_P2;PMS_P1;PMS_P2;Temp;Humidity;BMP_temperature;BMP_pressure;BME280_temperature;BME280_humidity;BME280_pressure;Samples;Min_cycle;Max_cycle;Signal;HPM_P1;HPM_P2
2021/12/25 00:00:13;;;;;;;13.48;6.05;;;7.50;99.90;;;;;;5012501;28;20022;-52
2021/12/25 00:02:39;;;;;;;9.88;5.03;;;7.60;99.90;;;;;;5017616;28;20044;-53
2021/12/25 00:05:06;;;;;;;14.93;8.60;;;7.50;99.90;;;;;;5033605;28;20113;-54
2021/12/25 00:07:51;;;;;;;11.88;6.88;;;7.30;99.90;;;;;;5033128;28;20086;-57
2021/12/25 00:10:17;;;;;;;9.55;5.03;;;7.00;99.90;;;;;;5032845;28;20021;-56
2021/12/25 00:12:42;;;;;;;12.05;6.53;;;7.00;99.90;;;;;;5032101;28;20117;-54
2021/12/25 00:15:08;;;;;;;8.98;5.40;;;6.80;99.90;;;;;;5032255;28;20041;-52
2021/12/25 00:17:35;;;;;;;10.27;5.70;;;6.70;99.90;;;;;;5014231;28;20053;-52
2021/12/25 00:20:00;;;;;;;9.73;5.78;;;6.70;99.90;;;;;;5013363;28;20071;-55
2021/12/25 00:22:26;;;;;;;9.93;5.30;;;6.80;99.90;;;;;;5012929;28;20022;-51
2021/12/25 00:24:52;;;;;;;9.65;5.80;;;6.90;99.90;;;;;;5016280;28;20033;-55
2021/12/25 00:34:47;;;;;;;11.77;7.10;;;7.00;99.90;;;;;;5036863;28;20022;-54
2021/12/25 00:37:14;;;;;;;12.85;5.18;;;7.10;99.90;;;;;;5036621;28;20021;-53
2021/12/25 00:39:40;;;;;;;11.20;6.20;;;7.20;99.90;;;;;;5036979;28;20029;-55
2021/12/25 00:42:06;;;;;;;11.85;6.30;;;7.30;99.90;;;;;;5036931;28;20021;-57
2021/12/25 00:44:33;;;;;;;11.57;6.20;;;7.30;99.90;;;;;;5036429;28;20029;-54
2021/12/25 00:46:59;;;;;;;9.85;5.68;;;7.30;99.90;;;;;;5036077;28;20124;-53
2021/12/25 00:49:26;;;;;;;10.77;5.95;;;7.50;99.90;;;;;;5036813;28;20041;-58
2021/12/25 00:51:52;;;;;;;8.57;4.82;;;7.50;99.90;;;;;;5035398;28;20144;-56
2021/12/25 00:54:41;;;;;;;8.07;5.10;;;7.60;99.90;;;;;;5035448;28;20120;-53
2021/12/25 00:57:06;;;;;;;10.32;5.82;;;7.60;99.90;;;;;;5036614;28;20033;-55
2021/12/25 00:59:32;;;;;;;9.13;5.32;;;7.70;99.90;;;;;;5035137;28;20021;-54
2021/12/25 01:01:58;;;;;;;8.68;4.95;;;7.60;99.90;;;;;;5035077;28;20029;-54
2021/12/25 01:04:24;;;;;;;8.25;5.30;;;7.50;99.90;;;;;;5035236;28;20033;-53
2021/12/25 01:06:50;;;;;;;10.25;4.70;;;7.50;99.90;;;;;;5035234;28;20080;-55
2021/12/25 01:09:16;;;;;;;10.55;4.63;;;7.50;99.90;;;;;;5035211;28;20025;-56
2021/12/25 01:11:45;;;;;;;9.18;4.80;;;7.40;99.90;;;;;;5036335;28;20025;-58
2021/12/25 01:14:25;;;;;;;9.68;5.30;;;7.40;99.90;;;;;;5036428;28;20017;-53
2021/12/25 01:20:10;;;;;;;8.13;4.28;;;7.40;99.90;;;;;;5013708;28;20112;-54
2021/12/25 01:29:15;;;;;;;4.43;3.47;;;7.50;99.90;;;;;;5036735;28;20025;-54
2021/12/25 01:34:09;;;;;;;5.28;3.17;;;7.50;99.90;;;;;;5036153;28;20032;-60
2021/12/25 01:41:54;;;;;;;5.22;2.83;;;7.30;99.90;;;;;;5036161;28;20024;-59
2021/12/25 01:49:41;;;;;;;3.83;2.28;;;7.00;99.90;;;;;;5036335;28;20036;-59
2021/12/25 01:52:08;;;;;;;3.80;2.03;;;7.00;99.90;;;;;;5034265;28;20033;-59
2021/12/25 01:54:34;;;;;;;2.97;2.28;;;7.00;99.90;;;;;;5035560;28;20047;-56
2021/12/25 01:57:00;;;;;;;4.57;2.53;;;7.00;99.90;;;;;;5035568;28;20091;-58
2021/12/25 01:59:26;;;;;;;9.60;3.67;;;7.00;99.90;;;;;;5035516;28;20095;-59
2021/12/25 02:01:52;;;;;;;4.50;2.80;;;7.00;99.90;;;;;;5034496;28;20484;-57
2021/12/25 02:04:18;;;;;;;3.65;2.40;;;6.90;99.90;;;;;;5034257;28;20022;-60
2021/12/25 02:06:43;;;;;;;3.05;2.25;;;6.90;99.90;;;;;;5034046;28;20033;-55
2021/12/25 02:09:09;;;;;;;5.10;2.40;;;6.80;99.90;;;;;;5035335;28;20025;-56
2021/12/25 02:11:35;;;;;;;2.40;1.90;;;6.70;99.90;;;;;;5035237;28;20084;-57
2021/12/25 02:14:02;;;;;;;3.03;2.42;;;6.60;99.90;;;;;;5035572;28;20071;-55
2021/12/25 02:16:37;;;;;;;3.70;2.20;;;6.60;99.90;;;;;;5033823;28;20022;-59
2021/12/25 02:19:20;;;;;;;2.38;2.08;;;6.50;99.90;;;;;;5034821;28;20071;-60
2021/12/25 02:21:49;;;;;;;2.72;1.77;;;6.60;99.90;;;;;;5035097;28;20060;-59
2021/12/25 02:24:15;;;;;;;2.47;2.03;;;6.50;99.90;;;;;;5033790;28;20025;-58
2021/12/25 02:26:43;;;;;;;2.60;2.10;;;6.50;99.90;;;;;;5035221;28;20072;-59
2021/12/25 02:29:09;;;;;;;4.47;1.83;;;6.40;99.90;;;;;;5033740;28;20025;-59
2021/12/25 02:31:35;;;;;;;2.95;2.25;;;6.40;99.90;;;;;;5034833;28;20547;-60
2021/12/25 02:34:04;;;;;;;3.75;2.25;;;6.60;99.90;;;;;;5033879;28;20040;-57
2021/12/25 02:36:30;;;;;;;2.42;2.10;;;6.60;99.90;;;;;;5034781;28;20018;-60
2021/12/25 02:38:56;;;;;;;2.83;1.90;;;6.70;99.90;;;;;;5034782;28;20024;-60
2021/12/25 02:41:21;;;;;;;2.17;1.88;;;6.70;99.90;;;;;;5033467;28;20389;-60
2021/12/25 02:43:48;;;;;;;3.92;2.22;;;6.50;99.90;;;;;;5034330;28;20026;-59
2021/12/25 02:46:14;;;;;;;2.72;2.10;;;6.50;99.90;;;;;;5034478;28;20030;-55
2021/12/25 02:48:42;;;;;;;3.40;2.50;;;6.40;99.90;;;;;;5034492;28;20036;-58
2021/12/25 02:51:10;;;;;;;3.03;2.20;;;6.20;99.90;;;;;;5033375;28;20025;-59
2021/12/25 02:53:36;;;;;;;4.28;2.75;;;6.20;99.90;;;;;;5033398;28;20029;-59
2021/12/25 02:56:04;;;;;;;4.13;3.10;;;6.00;99.90;;;;;;5034467;28;20036;-57
2021/12/25 02:58:29;;;;;;;5.05;3.53;;;6.00;99.90;;;;;;5033203;28;20060;-59
2021/12/25 03:01:11;;;;;;;4.85;3.45;;;6.00;99.90;;;;;;5033095;28;20057;-57
2021/12/25 03:03:37;;;;;;;5.90;3.30;;;5.90;99.90;;;;;;5034382;28;20025;-58
2021/12/25 03:06:04;;;;;;;4.80;3.33;;;5.80;99.90;;;;;;5032886;28;20037;-55
2021/12/25 03:08:30;;;;;;;5.65;4.00;;;5.70;99.90;;;;;;5032963;28;20040;-57
2021/12/25 03:10:56;;;;;;;5.40;3.75;;;5.70;99.90;;;;;;5034406;28;20022;-57
2021/12/25 03:13:35;;;;;;;5.10;3.63;;;5.50;99.90;;;;;;5034004;28;20025;-59
2021/12/25 03:16:04;;;;;;;5.78;3.78;;;5.60;99.90;;;;;;5034363;28;20017;-58
2021/12/25 03:18:37;;;;;;;5.43;4.05;;;5.50;99.90;;;;;;5032722;28;20022;-58
2021/12/25 03:21:05;;;;;;;7.00;4.80;;;5.40;99.90;;;;;;5034002;28;20021;-58
2021/12/25 03:23:32;;;;;;;6.35;4.30;;;5.40;99.90;;;;;;5032693;28;20025;-56
2021/12/25 03:25:59;;;;;;;8.52;4.65;;;5.40;99.90;;;;;;5033800;28;20030;-59
2021/12/25 03:28:32;;;;;;;9.20;5.00;;;5.40;99.90;;;;;;5032646;28;20067;-55
2021/12/25 03:31:01;;;;;;;6.75;4.30;;;5.20;99.90;;;;;;5032625;28;20025;-59
2021/12/25 03:33:28;;;;;;;8.55;4.95;;;5.20;99.90;;;;;;5032791;28;20029;-59
2021/12/25 03:35:54;;;;;;;7.88;5.07;;;5.40;99.90;;;;;;5033695;28;20025;-58
2021/12/25 03:38:20;;;;;;;8.07;4.85;;;5.50;99.90;;;;;;5033967;28;20092;-59
2021/12/25 03:40:48;;;;;;;6.85;4.93;;;5.40;99.90;;;;;;5032751;28;20033;-56
2021/12/25 03:43:13;;;;;;;9.18;5.38;;;5.40;99.90;;;;;;5032336;28;20112;-59
2021/12/25 03:45:39;;;;;;;8.20;5.30;;;5.30;99.90;;;;;;5032551;28;20049;-59
2021/12/25 03:48:27;;;;;;;12.55;6.43;;;5.30;99.90;;;;;;5033132;28;20171;-60
2021/12/25 03:57:38;;;;;;;7.47;4.70;;;5.40;99.90;;;;;;5033791;28;20048;-57
2021/12/25 03:59:16;;;;;;;8.82;5.47;;;5.40;99.90;;;;;;5033501;28;20041;-59
2021/12/25 04:01:51;;;;;;;8.90;5.07;;;5.40;99.90;;;;;;5032314;28;20036;-58
2021/12/25 04:06:50;;;;;;;9.30;5.38;;;5.20;99.90;;;;;;5033490;28;20022;-59
2021/12/25 04:09:28;;;;;;;9.23;5.88;;;5.30;99.90;;;;;;5033375;28;20033;-59
2021/12/25 04:12:00;;;;;;;9.45;5.88;;;5.20;99.90;;;;;;5032703;28;20033;-58
2021/12/25 04:14:26;;;;;;;9.40;5.45;;;5.10;99.90;;;;;;5032838;28;20071;-58
2021/12/25 04:16:52;;;;;;;9.05;5.90;;;5.30;99.90;;;;;;5033184;28;20025;-58
2021/12/25 04:19:18;;;;;;;8.50;4.95;;;5.40;99.90;;;;;;5031971;28;20072;-58
2021/12/25 04:22:06;;;;;;;7.82;5.43;;;5.50;99.90;;;;;;5033220;28;20132;-56
2021/12/25 04:24:37;;;;;;;8.98;5.97;;;5.60;99.90;;;;;;5032015;28;20025;-56
2021/12/25 04:27:06;;;;;;;8.57;5.35;;;5.80;99.90;;;;;;5031912;28;20029;-58
2021/12/25 04:29:48;;;;;;;8.88;5.15;;;5.90;99.90;;;;;;5033456;28;20109;-58
2021/12/25 04:32:48;;;;;;;9.48;5.28;;;5.50;99.90;;;;;;5032674;28;20030;-58
2021/12/25 05:04:42;;;;;;;10.07;5.20;;;4.80;99.90;;;;;;5033432;28;20484;-55
2021/12/25 05:07:09;;;;;;;7.15;5.15;;;4.90;99.90;;;;;;5031553;28;20061;-57
2021/12/25 05:09:35;;;;;;;9.35;5.07;;;5.00;99.90;;;;;;5033650;28;20018;-58
2021/12/25 05:12:01;;;;;;;11.07;6.00;;;4.90;99.90;;;;;;5036395;28;20021;-56
2021/12/25 05:14:26;;;;;;;9.52;5.78;;;4.60;99.90;;;;;;5035790;28;20021;-58
2021/12/25 05:16:52;;;;;;;7.70;4.40;;;4.60;99.90;;;;;;5035536;28;20025;-59
2021/12/25 05:19:18;;;;;;;7.28;4.68;;;4.70;99.90;;;;;;5036109;28;20018;-58
2021/12/25 05:21:44;;;;;;;7.82;5.00;;;4.90;99.90;;;;;;5037182;28;20053;-59
2021/12/25 05:24:10;;;;;;;9.13;5.28;;;4.80;99.90;;;;;;5037034;28;20060;-54
2021/12/25 05:26:36;;;;;;;8.85;5.10;;;4.60;99.90;;;;;;5035212;28;20108;-59
2021/12/25 05:29:03;;;;;;;7.43;4.45;;;4.50;99.90;;;;;;5034800;28;20021;-58
2021/12/25 05:31:31;;;;;;;7.65;4.55;;;4.40;99.90;;;;;;5035084;28;20059;-59
2021/12/25 05:33:57;;;;;;;6.15;4.15;;;4.50;99.90;;;;;;5035713;28;20033;-54
2021/12/25 05:36:24;;;;;;;5.47;3.67;;;4.30;99.90;;;;;;5036133;28;20030;-57
2021/12/25 05:38:50;;;;;;;7.10;3.08;;;4.40;99.90;;;;;;5034953;28;20026;-59
2021/12/25 05:41:16;;;;;;;8.10;4.07;;;4.30;99.90;;;;;;5036463;28;20084;-58
2021/12/25 05:43:42;;;;;;;9.10;4.50;;;4.10;99.90;;;;;;5034696;28;20021;-57
2021/12/25 05:46:08;;;;;;;10.13;4.55;;;4.10;99.90;;;;;;5034452;28;20075;-59
2021/12/25 05:48:35;;;;;;;8.18;4.43;;;4.10;99.90;;;;;;5036121;28;20025;-56
2021/12/25 05:51:05;;;;;;;7.13;3.70;;;4.20;99.90;;;;;;5034390;28;20037;-58
2021/12/25 05:53:32;;;;;;;7.80;4.53;;;4.20;99.90;;;;;;5035636;28;20479;-57
2021/12/25 05:55:57;;;;;;;8.13;4.40;;;4.10;99.90;;;;;;5035585;28;20464;-58
2021/12/25 05:58:23;;;;;;;8.73;4.47;;;4.00;99.90;;;;;;5035656;28;20029;-59
2021/12/25 06:00:49;;;;;;;8.13;4.57;;;4.20;99.90;;;;;;5035492;28;20096;-58
2021/12/25 06:03:15;;;;;;;8.27;4.53;;;4.30;99.90;;;;;;5035469;28;20040;-59
2021/12/25 06:05:40;;;;;;;7.65;4.47;;;4.20;99.90;;;;;;5035411;28;20545;-59
2021/12/25 06:08:06;;;;;;;8.32;4.25;;;4.20;99.90;;;;;;5035415;28;20025;-59
2021/12/25 06:10:32;;;;;;;7.07;3.95;;;4.10;99.90;;;;;;5035356;28;20029;-59
2021/12/25 06:12:59;;;;;;;6.38;3.92;;;3.90;99.90;;;;;;5035311;28;20032;-57
2021/12/25 06:15:26;;;;;;;6.75;3.70;;;3.90;99.90;;;;;;5033972;28;20021;-57
2021/12/25 06:17:52;;;;;;;8.77;4.60;;;3.80;99.90;;;;;;5034024;28;20026;-57
2021/12/25 06:20:18;;;;;;;7.50;4.38;;;3.60;99.90;;;;;;5034045;28;20017;-59
2021/12/25 06:22:44;;;;;;;7.85;3.88;;;3.60;99.90;;;;;;5034167;28;20395;-56
2021/12/25 06:25:10;;;;;;;6.32;3.88;;;3.60;99.90;;;;;;5035063;28;20026;-58
2021/12/25 06:27:36;;;;;;;7.38;3.65;;;3.50;99.90;;;;;;5033739;28;20091;-57
2021/12/25 06:30:06;;;;;;;8.15;4.50;;;3.40;99.90;;;;;;5034909;28;20021;-59
2021/12/25 06:32:32;;;;;;;6.75;4.30;;;3.40;99.90;;;;;;5034853;28;20025;-58
2021/12/25 06:34:57;;;;;;;7.65;4.20;;;3.50;99.90;;;;;;5018647;28;20029;-58
2021/12/25 06:37:24;;;;;;;6.30;3.53;;;3.70;99.90;;;;;;5013966;28;20388;-60
2021/12/25 06:39:50;;;;;;;6.93;3.90;;;3.70;99.90;;;;;;5015067;28;20029;-57
2021/12/25 06:42:15;;;;;;;6.63;4.50;;;3.70;99.90;;;;;;5014560;28;20025;-59
2021/12/25 06:44:41;;;;;;;7.45;3.78;;;3.60;99.90;;;;;;5015001;28;20045;-59
2021/12/25 06:47:07;;;;;;;5.13;3.67;;;3.50;99.90;;;;;;5013553;28;20033;-58
2021/12/25 06:49:33;;;;;;;8.27;4.10;;;3.50;99.90;;;;;;5013835;28;20025;-59
2021/12/25 06:51:59;;;;;;;7.70;3.92;;;3.30;99.90;;;;;;5014632;28;20396;-57
2021/12/25 06:54:24;;;;;;;5.65;3.70;;;3.30;99.90;;;;;;5014259;28;20021;-57
2021/12/25 06:56:50;;;;;;;7.30;4.10;;;3.20;99.90;;;;;;5013332;28;20018;-56
2021/12/25 06:59:17;;;;;;;10.45;4.93;;;3.30;99.90;;;;;;5014668;28;20076;-59
2021/12/25 07:01:43;;;;;;;7.93;4.10;;;3.20;99.90;;;;;;5014650;28;20044;-59
2021/12/25 07:04:20;;;;;;;6.82;4.05;;;3.20;99.90;;;;;;5014827;28;20029;-59
2021/12/25 07:06:46;;;;;;;6.93;4.90;;;3.10;99.90;;;;;;5014754;28;20029;-59
2021/12/25 07:09:12;;;;;;;6.63;3.88;;;3.20;99.90;;;;;;5013276;28;20033;-58
2021/12/25 07:11:38;;;;;;;5.95;3.72;;;3.20;99.90;;;;;;5014360;28;20025;-59
2021/12/25 07:14:05;;;;;;;5.13;3.50;;;3.00;99.90;;;;;;5013356;28;20179;-58
2021/12/25 07:16:32;;;;;;;5.50;3.15;;;3.10;99.90;;;;;;5014289;28;20018;-59
2021/12/25 07:18:57;;;;;;;6.45;4.15;;;3.10;99.90;;;;;;5012990;28;20022;-59
2021/12/25 07:21:23;;;;;;;4.18;2.92;;;3.00;99.90;;;;;;5013289;28;20404;-57
2021/12/25 07:23:49;;;;;;;5.63;3.17;;;2.80;99.90;;;;;;5014169;28;20057;-59
2021/12/25 07:26:18;;;;;;;7.15;3.72;;;2.80;99.90;;;;;;5013144;28;20068;-57
2021/12/25 07:28:45;;;;;;;6.13;4.78;;;2.60;99.90;;;;;;5012849;28;20037;-59
2021/12/25 07:31:11;;;;;;;6.38;4.20;;;2.60;99.90;;;;;;5014115;28;20500;-58
2021/12/25 07:33:37;;;;;;;7.15;4.53;;;2.60;99.90;;;;;;5013262;28;20025;-59
2021/12/25 07:36:03;;;;;;;4.80;2.92;;;2.60;99.90;;;;;;5013958;28;20022;-59
2021/12/25 07:38:29;;;;;;;8.88;4.85;;;2.70;99.90;;;;;;5012842;28;20041;-59
2021/12/25 07:40:55;;;;;;;5.43;3.00;;;2.70;99.90;;;;;;5013962;28;20050;-59
2021/12/25 07:43:21;;;;;;;4.57;3.15;;;2.50;99.90;;;;;;5013931;28;20041;-59
2021/12/25 07:45:48;;;;;;;4.88;2.92;;;2.40;99.90;;;;;;5018465;28;20018;-59
2021/12/25 07:48:24;;;;;;;8.63;3.83;;;2.30;99.90;;;;;;5033634;28;20029;-59
2021/12/25 07:50:50;;;;;;;6.15;3.10;;;2.40;99.90;;;;;;5033483;28;20036;-59
2021/12/25 07:53:16;;;;;;;5.25;3.05;;;2.30;99.90;;;;;;5034031;28;20047;-58
2021/12/25 07:55:49;;;;;;;6.20;3.28;;;2.30;99.90;;;;;;5031783;28;20476;-59
2021/12/25 07:58:16;;;;;;;5.13;3.13;;;2.30;99.90;;;;;;5032235;28;20037;-60
2021/12/25 08:00:43;;;;;;;4.43;2.80;;;2.30;99.90;;;;;;5025745;28;20075;-57
2021/12/25 08:03:09;;;;;;;5.28;2.97;;;2.10;99.90;;;;;;5032444;28;20167;-59
2021/12/25 08:05:35;;;;;;;5.88;2.70;;;2.10;99.90;;;;;;5032010;28;20124;-57
2021/12/25 08:08:01;;;;;;;5.93;3.08;;;2.00;99.90;;;;;;5033345;28;20029;-59
2021/12/25 08:10:26;;;;;;;2.85;2.03;;;1.90;99.90;;;;;;5032107;28;20040;-59
2021/12/25 08:12:56;;;;;;;5.95;3.10;;;1.90;99.90;;;;;;5033453;28;20399;-57
2021/12/25 08:15:30;;;;;;;4.32;2.88;;;1.80;99.90;;;;;;5031813;28;20022;-56
2021/12/25 08:18:00;;;;;;;5.72;2.88;;;1.60;99.90;;;;;;5033254;28;20024;-57
2021/12/25 08:20:26;;;;;;;3.25;2.33;;;1.60;99.90;;;;;;5031801;28;20495;-59
2021/12/25 08:22:53;;;;;;;3.55;2.05;;;1.60;99.90;;;;;;5033116;28;20021;-56
2021/12/25 08:25:18;;;;;;;4.68;2.72;;;1.50;99.90;;;;;;5031833;28;20026;-58
2021/12/25 08:27:46;;;;;;;4.03;2.45;;;1.60;99.90;;;;;;5033171;28;20143;-57
2021/12/25 08:30:15;;;;;;;5.93;3.38;;;1.60;99.90;;;;;;5021046;28;20076;-59
2021/12/25 08:32:42;;;;;;;3.58;2.55;;;1.60;99.90;;;;;;5012875;28;20041;-58
2021/12/25 08:35:11;;;;;;;7.28;2.50;;;1.70;99.90;;;;;;5013368;28;20093;-57
2021/12/25 08:37:37;;;;;;;5.88;2.53;;;1.70;99.90;;;;;;5012012;28;20113;-57
2021/12/25 08:40:04;;;;;;;4.57;2.40;;;1.50;99.90;;;;;;5012769;28;20109;-59
2021/12/25 08:42:30;;;;;;;7.68;2.65;;;1.50;99.90;;;;;;5011940;28;20109;-57
2021/12/25 08:47:29;;;;;;;13.90;6.20;;;1.40;99.90;;;;;;5017324;28;20547;-53
2021/12/25 08:49:55;;;;;;;11.00;5.47;;;1.50;99.90;;;;;;5015776;28;20057;-57
2021/12/25 08:52:22;;;;;;;16.13;8.63;;;1.50;99.90;;;;;;5017221;28;20499;-59
2021/12/25 08:54:49;;;;;;;4.82;2.80;;;1.60;99.90;;;;;;5017323;28;20073;-59
2021/12/25 08:57:16;;;;;;;6.13;3.30;;;1.60;99.90;;;;;;5015663;28;20026;-59
2021/12/25 08:59:43;;;;;;;2.88;2.05;;;1.60;99.90;;;;;;5015872;28;20112;-59
2021/12/25 09:02:13;;;;;;;7.38;4.13;;;1.50;99.90;;;;;;5016829;28;20029;-59
2021/12/25 09:04:40;;;;;;;5.93;3.78;;;1.70;99.90;;;;;;5016839;28;20083;-57
2021/12/25 09:07:06;;;;;;;6.78;3.92;;;1.50;99.90;;;;;;5016680;28;20036;-59
2021/12/25 09:09:32;;;;;;;7.18;3.20;;;1.50;99.90;;;;;;5016183;28;20037;-59
2021/12/25 09:11:57;;;;;;;5.18;2.70;;;1.60;99.90;;;;;;5016353;28;20404;-58
2021/12/25 09:14:24;;;;;;;3.55;2.20;;;1.70;99.90;;;;;;5016390;28;20018;-58
2021/12/25 09:16:50;;;;;;;4.15;2.30;;;1.60;99.90;;;;;;5016752;28;20022;-59
2021/12/25 09:19:16;;;;;;;6.70;2.60;;;1.60;99.90;;;;;;5016468;28;20022;-60
2021/12/25 09:21:41;;;;;;;2.50;1.90;;;1.50;99.90;;;;;;5015353;28;20026;-56
2021/12/25 09:24:15;;;;;;;2.28;2.03;;;1.40;99.90;;;;;;5015149;28;20018;-57
2021/12/25 09:26:41;;;;;;;4.80;1.83;;;1.40;99.90;;;;;;5015194;28;20029;-57
2021/12/25 09:29:07;;;;;;;2.35;1.55;;;1.40;99.90;;;;;;5015119;28;20026;-58
2021/12/25 09:31:33;;;;;;;3.78;2.20;;;1.30;99.90;;;;;;5015543;28;20018;-59
2021/12/25 09:33:59;;;;;;;4.85;2.10;;;1.50;99.90;;;;;;5015346;28;20072;-57
2021/12/25 09:36:26;;;;;;;3.67;1.90;;;1.50;99.90;;;;;;5015964;28;20122;-57
2021/12/25 09:38:52;;;;;;;3.70;1.88;;;1.30;99.90;;;;;;5015099;28;20022;-56
2021/12/25 09:41:18;;;;;;;3.83;2.10;;;1.10;99.90;;;;;;5016180;28;20022;-53
2021/12/25 09:43:46;;;;;;;3.45;2.30;;;1.40;99.90;;;;;;5016486;28;20057;-56
2021/12/25 09:46:21;;;;;;;5.43;1.88;;;1.50;99.90;;;;;;5026300;28;20029;-57
2021/12/25 09:48:48;;;;;;;1.95;1.30;;;1.70;99.90;;;;;;5034481;28;20087;-58
2021/12/25 09:51:14;;;;;;;2.70;1.73;;;1.70;99.90;;;;;;5034362;28;20400;-57
2021/12/25 09:53:40;;;;;;;1.63;1.42;;;1.70;99.90;;;;;;5034264;28;20025;-56
2021/12/25 09:56:06;;;;;;;2.65;1.48;;;1.60;99.90;;;;;;5033471;28;20021;-58
2021/12/25 09:58:32;;;;;;;3.30;1.83;;;1.40;99.90;;;;;;5034439;28;20044;-57
2021/12/25 10:00:58;;;;;;;4.57;2.58;;;1.40;99.90;;;;;;5035591;28;20097;-57
2021/12/25 10:03:45;;;;;;;4.60;1.67;;;1.50;99.90;;;;;;5034245;28;20056;-58
2021/12/25 10:06:28;;;;;;;1.88;1.35;;;1.60;99.90;;;;;;5035071;28;20053;-57
2021/12/25 10:08:53;;;;;;;1.73;1.17;;;1.60;99.90;;;;;;5035042;28;20060;-57
2021/12/25 10:11:19;;;;;;;2.35;1.60;;;1.30;99.90;;;;;;5035399;28;20057;-57
2021/12/25 10:13:45;;;;;;;1.65;1.38;;;1.40;99.90;;;;;;5035301;28;20068;-56
2021/12/25 10:16:19;;;;;;;2.85;1.48;;;1.30;99.90;;;;;;5020672;28;20030;-56
2021/12/25 10:18:46;;;;;;;1.95;1.30;;;1.10;99.90;;;;;;5015434;28;20026;-54
2021/12/25 10:21:30;;;;;;;3.58;1.90;;;1.10;99.90;;;;;;5014342;28;20401;-52
2021/12/25 10:24:04;;;;;;;1.98;1.45;;;1.40;99.90;;;;;;5014183;28;20037;-51
2021/12/25 10:26:30;;;;;;;3.20;2.00;;;1.40;99.90;;;;;;5014207;28;20034;-53
2021/12/25 10:28:56;;;;;;;2.00;1.42;;;1.40;99.90;;;;;;5015266;28;20092;-53
2021/12/25 10:31:35;;;;;;;4.15;1.67;;;1.40;99.90;;;;;;5015140;28;20029;-51
2021/12/25 10:34:13;;;;;;;3.70;2.20;;;1.30;99.90;;;;;;5014593;28;20037;-54
2021/12/25 10:36:38;;;;;;;3.50;2.45;;;1.20;99.90;;;;;;5013725;28;20400;-51
2021/12/25 10:39:08;;;;;;;4.82;1.77;;;1.10;99.90;;;;;;5015215;28;20021;-58
2021/12/25 10:41:37;;;;;;;3.67;1.80;;;1.00;99.90;;;;;;5013754;28;20022;-53
2021/12/25 10:44:25;;;;;;;3.47;2.15;;;0.90;99.90;;;;;;5015107;28;20029;-57
2021/12/25 10:47:05;;;;;;;10.63;3.90;;;0.80;99.90;;;;;;5014524;28;20026;-51
2021/12/25 10:49:38;;;;;;;5.78;3.22;;;0.90;99.90;;;;;;5014208;28;20129;-54
2021/12/25 10:52:19;;;;;;;5.18;3.38;;;1.10;99.90;;;;;;5014082;28;20030;-52
2021/12/25 10:54:53;;;;;;;2.92;2.20;;;1.20;99.90;;;;;;5014256;28;20026;-54
2021/12/25 10:57:31;;;;;;;6.70;3.65;;;1.30;99.90;;;;;;5014840;28;20088;-52
2021/12/25 10:59:57;;;;;;;9.77;4.47;;;1.30;99.90;;;;;;5013828;28;20018;-56
2021/12/25 11:02:39;;;;;;;5.30;3.45;;;1.20;99.90;;;;;;5014006;28;20030;-52
2021/12/25 11:05:17;;;;;;;5.13;3.45;;;1.20;99.90;;;;;;5015493;28;20040;-52
2021/12/25 11:07:43;;;;;;;3.17;2.20;;;1.20;99.90;;;;;;5013453;28;20034;-54
2021/12/25 11:10:19;;;;;;;3.90;2.03;;;1.00;99.90;;;;;;5014675;28;20033;-57
2021/12/25 11:12:45;;;;;;;4.22;2.20;;;1.00;99.90;;;;;;5014730;28;20022;-57
2021/12/25 11:15:14;;;;;;;3.83;1.77;;;1.10;99.90;;;;;;5014567;28;20033;-56
2021/12/25 11:17:42;;;;;;;1.83;1.55;;;0.90;99.90;;;;;;5014335;28;20072;-57
2021/12/25 11:20:22;;;;;;;1.85;1.40;;;0.80;99.90;;;;;;5013222;28;20053;-55
2021/12/25 11:22:53;;;;;;;2.72;2.33;;;0.70;99.90;;;;;;5014548;28;20021;-55
2021/12/25 11:25:25;;;;;;;4.18;2.78;;;0.70;99.90;;;;;;5014372;28;20493;-52
2021/12/25 11:27:52;;;;;;;10.57;6.65;;;0.70;99.90;;;;;;5013200;28;20068;-55
2021/12/25 11:30:21;;;;;;;5.70;2.67;;;0.80;99.90;;;;;;5013154;28;20121;-54
2021/12/25 11:32:49;;;;;;;86.10;43.28;;;0.70;99.90;;;;;;5012880;28;20033;-54
2021/12/25 11:35:16;;;;;;;7.05;4.53;;;0.80;99.90;;;;;;5014507;28;20022;-54
2021/12/25 11:37:48;;;;;;;19.42;13.13;;;0.60;99.90;;;;;;5014046;28;20028;-52
2021/12/25 11:40:18;;;;;;;7.95;4.22;;;0.80;99.90;;;;;;5013357;28;20022;-57
2021/12/25 11:42:49;;;;;;;6.15;4.25;;;0.80;99.90;;;;;;5013913;28;20076;-55
2021/12/25 11:45:16;;;;;;;3.83;2.65;;;0.90;99.90;;;;;;5014281;28;20022;-55
2021/12/25 11:47:46;;;;;;;5.53;4.13;;;0.70;99.90;;;;;;5012667;28;20033;-56
2021/12/25 11:50:24;;;;;;;1.75;1.30;;;0.80;99.90;;;;;;5014421;28;20120;-54
2021/12/25 11:53:13;;;;;;;2.65;1.90;;;0.80;99.90;;;;;;5029374;28;20120;-57
2021/12/25 11:58:25;;;;;;;2.58;2.08;;;0.90;99.90;;;;;;5014207;28;20026;-53
2021/12/25 12:00:52;;;;;;;5.00;2.40;;;0.90;99.90;;;;;;5013770;28;20053;-52
2021/12/25 12:03:42;;;;;;;3.10;2.20;;;0.80;99.90;;;;;;5012640;28;20092;-57
2021/12/25 12:06:08;;;;;;;5.07;2.03;;;0.90;99.90;;;;;;5013953;28;20048;-58
2021/12/25 12:08:54;;;;;;;3.45;1.60;;;1.00;99.90;;;;;;5013584;28;20022;-57
2021/12/25 12:11:24;;;;;;;2.17;1.50;;;1.00;99.90;;;;;;5002001;28;20045;-57
2021/12/25 12:14:13;;;;;;;4.75;2.78;;;1.00;99.90;;;;;;5013461;28;20044;-58
2021/12/25 12:16:43;;;;;;;4.68;2.45;;;1.10;99.90;;;;;;5013770;28;20033;-54
2021/12/25 12:19:33;;;;;;;4.00;2.60;;;1.20;99.90;;;;;;5017315;28;20049;-56
2021/12/25 12:21:59;;;;;;;2.53;1.92;;;1.20;99.90;;;;;;5010216;28;20041;-58
2021/12/25 12:27:03;;;;;;;5.22;3.88;;;1.10;99.90;;;;;;5023331;28;20025;-56
2021/12/25 12:29:52;;;;;;;4.00;3.05;;;1.10;99.90;;;;;;5039725;28;20118;-52
2021/12/25 12:32:20;;;;;;;7.03;5.93;;;0.90;99.90;;;;;;5038430;28;20021;-57
2021/12/25 12:34:48;;;;;;;6.93;2.78;;;0.90;99.90;;;;;;5039704;28;20029;-56
2021/12/25 12:37:13;;;;;;;7.38;3.38;;;0.90;99.90;;;;;;5038496;28;20025;-58
2021/12/25 12:40:05;;;;;;;6.63;3.75;;;1.00;99.90;;;;;;5039753;28;20028;-57
2021/12/25 12:42:43;;;;;;;4.38;2.55;;;0.90;99.90;;;;;;5039602;28;20108;-57
2021/12/25 12:45:19;;;;;;;2.85;2.10;;;1.00;99.90;;;;;;5038677;28;20124;-53
2021/12/25 12:48:07;;;;;;;3.65;2.67;;;1.00;99.90;;;;;;5039867;28;20025;-55
2021/12/25 12:50:35;;;;;;;4.00;2.40;;;0.90;99.90;;;;;;5039636;28;20423;-57
2021/12/25 12:53:02;;;;;;;6.03;4.35;;;0.90;99.90;;;;;;5039972;28;20083;-57
2021/12/25 12:55:34;;;;;;;8.93;6.07;;;0.90;99.90;;;;;;5040047;28;20020;-54
2021/12/25 12:58:19;;;;;;;3.35;1.92;;;0.80;99.90;;;;;;5039671;28;20095;-59
2021/12/25 13:00:48;;;;;;;6.65;4.88;;;0.70;99.90;;;;;;5038526;28;20026;-54
2021/12/25 13:03:15;;;;;;;8.07;5.05;;;0.90;99.90;;;;;;5038446;28;20021;-55
2021/12/25 13:05:51;;;;;;;9.48;5.55;;;0.90;99.90;;;;;;5038261;28;20026;-58
2021/12/25 13:08:20;;;;;;;5.53;2.90;;;0.90;99.90;;;;;;5039945;28;20030;-54
2021/12/25 13:10:51;;;;;;;1.95;1.48;;;1.00;99.90;;;;;;5039033;28;20029;-54
2021/12/25 13:13:28;;;;;;;5.30;2.00;;;1.00;99.90;;;;;;5040537;28;20031;-56
2021/12/25 13:16:23;;;;;;;6.13;4.13;;;0.80;99.90;;;;;;5022434;28;20026;-54
2021/12/25 13:18:53;;;;;;;2.33;1.60;;;0.80;99.90;;;;;;5033089;28;20030;-56
2021/12/25 13:21:27;;;;;;;3.08;2.15;;;0.80;99.90;;;;;;5019826;28;20018;-54
2021/12/25 13:23:57;;;;;;;9.30;6.78;;;0.80;99.90;;;;;;5018479;28;20026;-57
2021/12/25 13:26:32;;;;;;;4.03;2.35;;;0.90;99.90;;;;;;5018494;28;20033;-52
2021/12/25 13:29:02;;;;;;;7.65;3.55;;;0.90;99.90;;;;;;5034719;28;20022;-54
2021/12/25 13:31:30;;;;;;;56.03;34.83;;;0.80;99.90;;;;;;5013929;28;20053;-50
2021/12/25 13:33:59;;;;;;;36.92;27.33;;;0.80;99.90;;;;;;5016464;28;20037;-51
2021/12/25 13:36:28;;;;;;;34.70;20.52;;;0.70;99.90;;;;;;5016324;28;20018;-52
2021/12/25 13:39:04;;;;;;;4.68;1.92;;;0.90;99.90;;;;;;5014834;28;20053;-53
2021/12/25 13:41:39;;;;;;;3.97;2.00;;;0.90;99.90;;;;;;5016161;28;20014;-52
2021/12/25 13:44:19;;;;;;;2.28;1.55;;;0.90;99.90;;;;;;5014905;28;20022;-54
2021/12/25 13:46:58;;;;;;;2.35;1.50;;;1.00;99.90;;;;;;5014950;28;20022;-55
2021/12/25 13:49:42;;;;;;;1.90;1.60;;;1.00;99.90;;;;;;5015385;28;20026;-55
2021/12/25 13:52:20;;;;;;;6.75;2.30;;;1.10;99.90;;;;;;5015809;28;20040;-53
2021/12/25 13:54:59;;;;;;;4.05;2.20;;;0.90;99.90;;;;;;5016441;28;20030;-52
2021/12/25 13:57:27;;;;;;;3.47;2.63;;;0.80;99.90;;;;;;5015886;28;20520;-54
2021/12/25 14:00:01;;;;;;;4.18;2.15;;;0.80;99.90;;;;;;5015843;28;20106;-56
2021/12/25 14:03:03;;;;;;;2.97;2.03;;;0.90;99.90;;;;;;5014638;28;20026;-57
2021/12/25 14:05:31;;;;;;;5.40;3.08;;;1.00;99.90;;;;;;5014537;28;20152;-52
2021/12/25 14:08:10;;;;;;;2.83;2.40;;;0.90;99.90;;;;;;5014956;28;20406;-54
2021/12/25 14:10:38;;;;;;;7.40;3.42;;;0.80;99.90;;;;;;5015933;28;20022;-54
2021/12/25 14:13:15;;;;;;;2.38;2.10;;;1.00;99.90;;;;;;5015885;28;20029;-54
2021/12/25 14:15:43;;;;;;;2.17;1.75;;;1.00;99.90;;;;;;5015702;28;20022;-51
2021/12/25 14:18:09;;;;;;;2.05;1.48;;;0.90;99.90;;;;;;5030740;28;20061;-52
2021/12/25 14:20:37;;;;;;;2.55;1.52;;;0.90;99.90;;;;;;5015468;28;20053;-53
2021/12/25 14:23:14;;;;;;;2.15;1.67;;;0.90;99.90;;;;;;5015327;28;20026;-53